createdAt,value
2019-02-05T00:00:53.372Z,4.29
2019-02-05T00:01:53.352Z,4.34
2019-02-05T00:02:53.325Z,4.32
2019-02-05T00:03:53.309Z,4.24
2019-02-05T00:04:53.315Z,4.26
2019-02-05T00:05:53.261Z,4.34
2019-02-05T00:06:53.232Z,4.34
2019-02-05T00:07:53.213Z,4.34
2019-02-05T00:08:53.190Z,4.32
2019-02-05T00:09:53.188Z,4.40
2019-02-05T00:10:53.175Z,4.41
2019-02-05T00:11:53.140Z,4.42
2019-02-05T00:12:53.102Z,4.42
2019-02-05T00:13:53.081Z,4.36
2019-02-05T00:14:53.078Z,4.44
2019-02-05T00:15:53.139Z,4.44
2019-02-05T00:16:53.051Z,4.40
2019-02-05T00:17:53.000Z,4.41
2019-02-05T00:18:52.968Z,4.37
2019-02-05T00:19:52.942Z,4.47
2019-02-05T00:20:52.923Z,4.42
2019-02-05T00:21:52.898Z,4.42
2019-02-05T00:22:52.897Z,4.47
2019-02-05T00:23:52.862Z,4.41
2019-02-05T00:24:52.838Z,4.44
2019-02-05T00:25:52.810Z,4.50
2019-02-05T00:26:52.801Z,4.44
2019-02-05T00:27:52.812Z,4.44
2019-02-05T00:28:52.743Z,4.41
2019-02-05T00:29:52.723Z,4.41
2019-02-05T00:30:52.699Z,4.44
2019-02-05T00:31:52.677Z,4.45
2019-02-05T00:32:52.681Z,4.45
2019-02-05T00:33:52.627Z,4.41
2019-02-05T00:34:52.716Z,4.41
2019-02-05T00:35:52.586Z,4.47
2019-02-05T00:36:52.565Z,4.44
2019-02-05T00:37:52.553Z,4.42
2019-02-05T00:38:52.535Z,4.45
2019-02-05T00:39:52.497Z,4.44
2019-02-05T00:40:52.474Z,4.41
2019-02-05T00:41:52.449Z,4.42
2019-02-05T00:42:52.431Z,4.44
2019-02-05T00:43:52.429Z,4.45
2019-02-05T00:44:52.382Z,4.44
2019-02-05T00:45:52.363Z,4.52
2019-02-05T00:46:52.334Z,4.45
2019-02-05T00:47:52.323Z,4.45
2019-02-05T00:48:52.313Z,4.45
2019-02-05T00:49:52.300Z,4.36
2019-02-05T00:50:52.251Z,4.36
2019-02-05T00:51:52.226Z,4.41
2019-02-05T00:52:52.203Z,4.42
2019-02-05T00:53:52.186Z,4.41
2019-02-05T00:54:52.167Z,4.36
2019-02-05T00:55:52.153Z,4.34
2019-02-05T00:56:52.117Z,4.36
2019-02-05T00:57:52.094Z,4.27
2019-02-05T00:58:52.080Z,4.26
2019-02-05T00:59:52.048Z,4.34
2019-02-05T01:00:52.040Z,4.37
2019-02-05T01:01:52.021Z,4.27
2019-02-05T01:02:52.002Z,4.22
2019-02-05T01:03:51.981Z,4.27
2019-02-05T01:04:51.938Z,4.20
2019-02-05T01:05:51.947Z,4.24
2019-02-05T01:06:53.765Z,4.24
2019-02-05T01:07:51.871Z,4.32
2019-02-05T01:08:51.846Z,4.27
2019-02-05T01:09:51.825Z,4.27
2019-02-05T01:10:51.800Z,4.23
2019-02-05T01:11:51.800Z,4.27
2019-02-05T01:12:53.766Z,4.24
2019-02-05T01:13:51.732Z,4.23
2019-02-05T01:14:51.710Z,4.27
2019-02-05T01:15:51.691Z,4.22
2019-02-05T01:16:51.664Z,4.33
2019-02-05T01:17:51.667Z,4.29
2019-02-05T01:18:51.631Z,4.24
2019-02-05T01:19:51.599Z,4.26
2019-02-05T01:20:51.578Z,4.24
2019-02-05T01:21:51.553Z,4.24
2019-02-05T01:22:51.564Z,4.24
2019-02-05T01:23:51.507Z,4.24
2019-02-05T01:24:51.482Z,4.22
2019-02-05T01:25:51.463Z,4.24
2019-02-05T01:26:51.450Z,4.27
2019-02-05T01:27:51.422Z,4.26
2019-02-05T01:28:51.412Z,4.27
2019-02-05T01:29:51.375Z,4.22
2019-02-05T01:30:51.368Z,4.24
2019-02-05T01:31:51.326Z,4.22
2019-02-05T01:32:51.327Z,4.11
2019-02-05T01:33:51.300Z,4.11
2019-02-05T01:34:51.267Z,4.09
2019-02-05T01:35:51.240Z,4.05
2019-02-05T01:36:51.219Z,4.11
2019-02-05T01:37:51.191Z,4.09
2019-02-05T01:38:51.175Z,4.00
2019-02-05T01:39:51.167Z,4.16
2019-02-05T01:40:51.126Z,4.04
2019-02-05T01:41:51.108Z,3.97
2019-02-05T01:42:51.083Z,4.02
2019-02-05T01:43:51.095Z,4.02
2019-02-05T01:44:51.035Z,4.00
2019-02-05T01:45:51.014Z,4.09
2019-02-05T01:46:50.994Z,4.00
2019-02-05T01:47:50.970Z,4.09
2019-02-05T01:48:50.948Z,4.00
2019-02-05T01:49:50.943Z,3.98
2019-02-05T01:50:50.902Z,3.98
2019-02-05T01:51:50.880Z,4.00
2019-02-05T01:52:50.857Z,4.04
2019-02-05T01:53:50.863Z,4.00
2019-02-05T01:54:50.811Z,4.08
2019-02-05T01:55:50.826Z,4.05
2019-02-05T01:56:50.768Z,3.97
2019-02-05T01:57:50.745Z,4.00
2019-02-05T01:58:50.718Z,4.02
2019-02-05T01:59:50.699Z,4.02
2019-02-05T02:00:50.679Z,4.11
2019-02-05T02:01:50.674Z,4.12
2019-02-05T02:02:50.632Z,4.08
2019-02-05T02:03:50.610Z,4.11
2019-02-05T02:04:50.586Z,4.12
2019-02-05T02:05:50.579Z,4.09
2019-02-05T02:06:50.550Z,4.04
2019-02-05T02:07:50.518Z,3.98
2019-02-05T02:08:50.496Z,4.04
2019-02-05T02:09:50.482Z,4.08
2019-02-05T02:10:50.449Z,4.12
2019-02-05T02:11:50.446Z,4.09
2019-02-05T02:12:50.486Z,4.02
2019-02-05T02:13:50.385Z,4.00
2019-02-05T02:14:50.359Z,4.02
2019-02-05T02:15:50.360Z,4.02
2019-02-05T02:16:50.318Z,4.02
2019-02-05T02:17:50.291Z,3.98
2019-02-05T02:18:50.286Z,4.04
2019-02-05T02:19:50.263Z,4.04
2019-02-05T02:20:50.226Z,4.08
2019-02-05T02:21:50.202Z,4.00
2019-02-05T02:22:50.194Z,4.02
2019-02-05T02:23:50.178Z,3.94
2019-02-05T02:24:50.132Z,4.04
2019-02-05T02:25:50.110Z,3.96
2019-02-05T02:26:51.995Z,4.00
2019-02-05T02:27:50.864Z,3.90
2019-02-05T02:28:50.058Z,3.94
2019-02-05T02:29:50.021Z,3.90
2019-02-05T02:30:50.011Z,3.88
2019-02-05T02:31:50.775Z,3.88
2019-02-05T02:32:49.969Z,3.91
2019-02-05T02:33:49.931Z,3.88
2019-02-05T02:34:49.909Z,3.91
2019-02-05T02:35:49.886Z,3.93
2019-02-05T02:36:49.861Z,3.91
2019-02-05T02:37:49.848Z,3.87
2019-02-05T02:38:49.845Z,3.90
2019-02-05T02:39:49.792Z,3.90
2019-02-05T02:40:49.787Z,3.88
2019-02-05T02:41:49.770Z,3.86
2019-02-05T02:42:49.744Z,3.90
2019-02-05T02:43:49.703Z,3.90
2019-02-05T02:44:49.682Z,3.93
2019-02-05T02:45:49.658Z,3.87
2019-02-05T02:46:49.638Z,3.88
2019-02-05T02:47:49.662Z,3.83
2019-02-05T02:48:49.591Z,3.88
2019-02-05T02:49:49.570Z,3.88
2019-02-05T02:50:49.549Z,3.90
2019-02-05T02:51:49.589Z,3.87
2019-02-05T02:52:49.504Z,3.90
2019-02-05T02:53:49.497Z,3.88
2019-02-05T02:54:49.456Z,3.91
2019-02-05T02:55:49.429Z,3.94
2019-02-05T02:56:49.411Z,3.86
2019-02-05T02:57:49.401Z,3.90
2019-02-05T02:58:49.381Z,3.86
2019-02-05T02:59:49.367Z,3.90
2019-02-05T03:00:49.320Z,3.86
2019-02-05T03:01:49.297Z,3.88
2019-02-05T03:02:49.271Z,3.91
2019-02-05T03:03:49.266Z,3.91
2019-02-05T03:04:49.230Z,3.84
2019-02-05T03:05:49.223Z,3.90
2019-02-05T03:06:49.186Z,3.79
2019-02-05T03:07:49.161Z,3.90
2019-02-05T03:08:49.135Z,3.90
2019-02-05T03:09:49.112Z,3.79
2019-02-05T03:10:49.110Z,3.87
2019-02-05T03:11:49.071Z,3.80
2019-02-05T03:12:49.048Z,3.78
2019-02-05T03:13:49.029Z,3.84
2019-02-05T03:14:49.020Z,3.72
2019-02-05T03:15:49.008Z,3.80
2019-02-05T03:16:48.951Z,3.79
2019-02-05T03:17:48.929Z,3.76
2019-02-05T03:18:48.907Z,3.72
2019-02-05T03:19:48.889Z,3.76
2019-02-05T03:20:48.881Z,3.79
2019-02-05T03:21:48.843Z,3.70
2019-02-05T03:22:48.833Z,3.70
2019-02-05T03:23:48.794Z,3.70
2019-02-05T03:24:48.773Z,3.76
2019-02-05T03:25:48.771Z,3.75
2019-02-05T03:26:48.731Z,3.69
2019-02-05T03:27:48.721Z,3.72
2019-02-05T03:28:48.684Z,3.73
2019-02-05T03:29:48.665Z,3.72
2019-02-05T03:32:30.748Z,3.75
2019-02-05T03:33:30.726Z,3.70
2019-02-05T03:34:30.702Z,3.75
2019-02-05T03:35:30.695Z,3.70
2019-02-05T03:36:30.658Z,3.73
2019-02-05T03:37:33.386Z,3.70
2019-02-05T03:38:30.640Z,3.79
2019-02-05T03:39:30.589Z,3.86
2019-02-05T03:40:30.612Z,3.70
2019-02-05T03:41:30.545Z,3.79
2019-02-05T03:42:30.522Z,3.83
2019-02-05T03:43:30.504Z,3.73
2019-02-05T03:44:30.495Z,3.80
2019-02-05T03:45:30.488Z,3.70
2019-02-05T03:46:30.431Z,3.70
2019-02-05T03:47:30.408Z,3.72
2019-02-05T03:48:30.382Z,3.78
2019-02-05T03:49:30.376Z,3.79
2019-02-05T03:50:30.342Z,3.73
2019-02-05T03:51:30.337Z,3.83
2019-02-05T03:52:30.292Z,3.84
2019-02-05T03:53:30.275Z,3.80
2019-02-05T03:54:30.250Z,3.79
2019-02-05T03:55:30.235Z,3.78
2019-02-05T03:56:30.222Z,3.83
2019-02-05T03:57:31.049Z,3.78
2019-02-05T03:58:30.176Z,3.79
2019-02-05T03:59:30.137Z,3.79
2019-02-05T04:00:30.111Z,3.83
2019-02-05T04:01:30.101Z,3.84
2019-02-05T04:02:30.084Z,3.80
2019-02-05T04:03:30.047Z,3.73
2019-02-05T04:04:30.021Z,3.86
2019-02-05T04:05:32.443Z,3.80
2019-02-05T04:06:29.975Z,3.76
2019-02-05T04:07:29.972Z,3.79
2019-02-05T04:08:29.934Z,3.78
2019-02-05T04:09:29.912Z,3.86
2019-02-05T04:10:29.934Z,3.86
2019-02-05T04:11:29.867Z,3.76
2019-02-05T04:12:29.839Z,3.78
2019-02-05T04:13:29.817Z,3.78
2019-02-05T04:14:29.797Z,3.78
2019-02-05T04:15:29.778Z,3.79
2019-02-05T04:16:29.766Z,3.80
2019-02-05T04:17:29.730Z,3.83
2019-02-05T04:18:29.711Z,3.79
2019-02-05T04:19:29.714Z,3.70
2019-02-05T04:20:29.660Z,3.72
2019-02-05T04:21:29.642Z,3.80
2019-02-05T04:22:29.614Z,3.76
2019-02-05T04:23:29.593Z,3.70
2019-02-05T04:24:29.567Z,3.76
2019-02-05T04:25:29.580Z,3.75
2019-02-05T04:26:29.525Z,3.68
2019-02-05T04:27:29.507Z,3.72
2019-02-05T04:28:29.488Z,3.68
2019-02-05T04:29:29.468Z,3.66
2019-02-05T04:30:29.436Z,3.76
2019-02-05T04:31:29.435Z,3.75
2019-02-05T04:32:29.407Z,3.72
2019-02-05T04:33:29.368Z,3.68
2019-02-05T04:34:29.352Z,3.76
2019-02-05T04:35:29.325Z,3.73
2019-02-05T04:36:29.311Z,3.70
2019-02-05T04:37:29.292Z,3.78
2019-02-05T04:38:29.258Z,3.83
2019-02-05T04:39:29.232Z,3.75
2019-02-05T04:40:29.213Z,3.76
2019-02-05T04:41:29.210Z,3.79
2019-02-05T04:42:29.165Z,3.80
2019-02-05T04:43:29.145Z,3.70
2019-02-05T04:44:29.137Z,3.73
2019-02-05T04:45:34.277Z,3.78
2019-02-05T04:46:29.077Z,3.80
2019-02-05T04:47:29.055Z,3.79
2019-02-05T04:48:29.030Z,3.84
2019-02-05T04:49:29.009Z,3.80
2019-02-05T04:50:29.005Z,3.73
2019-02-05T04:51:28.979Z,3.84
2019-02-05T04:52:28.940Z,3.83
2019-02-05T04:53:28.923Z,3.80
2019-02-05T04:54:28.928Z,3.87
2019-02-05T04:55:28.880Z,3.84
2019-02-05T04:56:28.856Z,3.87
2019-02-05T04:57:28.825Z,3.80
2019-02-05T04:58:28.804Z,3.80
2019-02-05T04:59:28.785Z,3.83
2019-02-05T05:00:28.783Z,3.88
2019-02-05T05:01:28.752Z,3.90
2019-02-05T05:02:28.715Z,3.80
2019-02-05T05:03:28.693Z,3.80
2019-02-05T05:04:28.671Z,3.75
2019-02-05T05:05:28.661Z,3.80
2019-02-05T05:06:28.622Z,3.78
2019-02-05T05:07:28.607Z,3.80
2019-02-05T05:08:28.579Z,3.73
2019-02-05T05:09:28.557Z,3.83
2019-02-05T05:10:28.540Z,3.75
2019-02-05T05:11:28.532Z,3.75
2019-02-05T05:12:28.589Z,3.76
2019-02-05T05:13:28.488Z,3.80
2019-02-05T05:14:28.444Z,3.79
2019-02-05T05:15:28.419Z,3.83
2019-02-05T05:16:28.396Z,3.78
2019-02-05T05:17:28.393Z,3.75
2019-02-05T05:18:28.366Z,3.83
2019-02-05T05:19:28.329Z,3.78
2019-02-05T05:20:28.308Z,3.78
2019-02-05T05:21:28.286Z,3.87
2019-02-05T05:22:28.270Z,3.80
2019-02-05T05:23:28.252Z,3.76
2019-02-05T05:24:28.217Z,3.76
2019-02-05T05:25:28.195Z,3.86
2019-02-05T05:26:28.182Z,3.80
2019-02-05T05:27:28.150Z,3.80
2019-02-05T05:28:28.144Z,3.84
2019-02-05T05:29:28.126Z,3.80
2019-02-05T05:30:28.088Z,3.79
2019-02-05T05:31:28.059Z,3.84
2019-02-05T05:32:28.048Z,3.88
2019-02-05T05:33:28.014Z,3.84
2019-02-05T05:34:27.996Z,3.84
2019-02-05T05:35:40.226Z,3.87
2019-02-05T05:36:28.793Z,3.84
2019-02-05T05:37:27.920Z,3.86
2019-02-05T05:38:27.904Z,3.90
2019-02-05T05:39:27.883Z,3.88
2019-02-05T05:40:27.888Z,3.88
2019-02-05T05:41:27.831Z,3.91
2019-02-05T05:42:27.817Z,3.83
2019-02-05T05:43:27.788Z,3.87
2019-02-05T05:44:27.761Z,3.80
2019-02-05T05:45:27.741Z,3.88
2019-02-05T05:46:27.733Z,3.88
2019-02-05T05:47:27.695Z,3.87
2019-02-05T05:48:27.674Z,3.91
2019-02-05T05:49:27.655Z,3.88
2019-02-05T05:50:27.637Z,3.86
2019-02-05T05:51:27.787Z,3.93
2019-02-05T05:52:27.606Z,3.86
2019-02-05T05:53:27.566Z,3.90
2019-02-05T05:54:27.551Z,3.90
2019-02-05T05:55:27.517Z,3.86
2019-02-05T05:56:27.502Z,3.96
2019-02-05T05:57:27.482Z,3.97
2019-02-05T05:58:27.482Z,3.96
2019-02-05T05:59:27.423Z,3.97
2019-02-05T06:00:27.406Z,3.93
2019-02-05T06:01:27.390Z,4.05
2019-02-05T06:02:27.355Z,3.96
2019-02-05T06:03:27.331Z,3.91
2019-02-05T06:04:27.332Z,4.00
2019-02-05T06:05:27.287Z,3.94
2019-02-05T06:06:27.261Z,3.96
2019-02-05T06:07:27.241Z,3.98
2019-02-05T06:08:27.215Z,3.94
2019-02-05T06:09:27.208Z,3.96
2019-02-05T06:10:27.205Z,3.97
2019-02-05T06:11:27.148Z,3.97
2019-02-05T06:12:27.136Z,3.94
2019-02-05T06:13:27.110Z,3.93
2019-02-05T06:14:27.096Z,3.98
2019-02-05T06:15:27.095Z,3.97
2019-02-05T06:16:27.039Z,3.98
2019-02-05T06:17:27.023Z,4.00
2019-02-05T06:18:26.995Z,3.97
2019-02-05T06:19:26.972Z,3.93
2019-02-05T06:20:26.953Z,3.93
2019-02-05T06:21:26.940Z,4.02
2019-02-05T06:22:27.841Z,3.97
2019-02-05T06:23:26.877Z,4.04
2019-02-05T06:24:26.853Z,4.04
2019-02-05T06:25:26.837Z,4.05
2019-02-05T06:26:26.853Z,3.90
2019-02-05T06:27:26.792Z,4.04
2019-02-05T06:28:34.383Z,4.02
2019-02-05T06:29:26.745Z,3.97
2019-02-05T06:30:26.717Z,4.04
2019-02-05T06:31:26.699Z,4.04
2019-02-05T06:32:26.693Z,4.02
2019-02-05T06:33:26.652Z,3.93
2019-02-05T06:34:26.638Z,4.04
2019-02-05T06:35:26.612Z,4.04
2019-02-05T06:36:26.608Z,4.02
2019-02-05T06:37:26.581Z,4.00
2019-02-05T06:38:26.559Z,3.97
2019-02-05T06:39:26.516Z,3.97
2019-02-05T06:40:26.492Z,3.98
2019-02-05T06:41:26.471Z,3.98
2019-02-05T06:42:26.446Z,4.04
2019-02-05T06:43:26.427Z,4.15
2019-02-05T06:44:26.418Z,4.09
2019-02-05T06:45:26.383Z,4.15
2019-02-05T06:46:26.356Z,4.09
2019-02-05T06:47:26.331Z,4.02
2019-02-05T06:48:26.312Z,4.02
2019-02-05T06:49:26.308Z,4.14
2019-02-05T06:50:26.266Z,4.15
2019-02-05T06:51:26.249Z,4.00
2019-02-05T06:52:26.222Z,4.12
2019-02-05T06:53:26.199Z,4.06
2019-02-05T06:54:26.175Z,4.18
2019-02-05T06:55:26.172Z,4.11
2019-02-05T06:56:26.131Z,4.08
2019-02-05T06:57:26.184Z,4.11
2019-02-05T06:58:26.086Z,4.12
2019-02-05T06:59:26.065Z,4.09
2019-02-05T07:00:26.065Z,4.08
2019-02-05T07:01:26.022Z,4.14
2019-02-05T07:02:25.998Z,4.08
2019-02-05T07:03:25.978Z,4.05
2019-02-05T07:04:25.959Z,4.09
2019-02-05T07:05:25.946Z,4.18
2019-02-05T07:06:25.903Z,4.22
2019-02-05T07:07:25.884Z,4.15
2019-02-05T07:08:25.871Z,4.08
2019-02-05T07:09:25.842Z,4.09
2019-02-05T07:10:25.814Z,4.11
2019-02-05T07:11:25.819Z,4.12
2019-02-05T07:12:25.782Z,4.06
2019-02-05T07:13:25.747Z,4.11
2019-02-05T07:14:25.720Z,4.09
2019-02-05T07:15:25.710Z,4.16
2019-02-05T07:16:25.687Z,4.14
2019-02-05T07:17:25.675Z,4.11
2019-02-05T07:18:25.643Z,4.14
2019-02-05T07:19:25.613Z,4.26
2019-02-05T07:20:25.591Z,4.23
2019-02-05T07:21:25.572Z,4.23
2019-02-05T07:22:25.562Z,4.23
2019-02-05T07:23:25.527Z,4.23
2019-02-05T07:24:25.537Z,4.33
2019-02-05T07:25:25.507Z,4.34
2019-02-05T07:26:25.456Z,4.33
2019-02-05T07:27:25.444Z,4.50
2019-02-05T07:28:25.414Z,4.44
2019-02-05T07:29:25.404Z,4.48
2019-02-05T07:30:25.402Z,4.47
2019-02-05T07:31:25.393Z,4.37
2019-02-05T07:32:25.330Z,4.40
2019-02-05T07:33:25.306Z,4.41
2019-02-05T07:34:25.283Z,4.47
2019-02-05T07:35:25.255Z,4.37
2019-02-05T07:36:25.265Z,4.41
2019-02-05T07:37:25.207Z,4.37
2019-02-05T07:38:25.188Z,4.40
2019-02-05T07:39:27.560Z,4.29
2019-02-05T07:40:25.150Z,4.32
2019-02-05T07:41:25.121Z,4.32
2019-02-05T07:42:25.117Z,4.34
2019-02-05T07:43:25.071Z,4.34
2019-02-05T07:44:25.053Z,4.27
2019-02-05T07:45:25.040Z,4.29
2019-02-05T07:46:25.010Z,4.37
2019-02-05T07:47:24.984Z,4.32
2019-02-05T07:48:25.846Z,4.41
2019-02-05T07:49:24.940Z,4.41
2019-02-05T07:50:24.916Z,4.40
2019-02-05T07:51:24.933Z,4.41
2019-02-05T07:52:24.869Z,4.41
2019-02-05T07:53:24.849Z,4.41
2019-02-05T07:54:24.826Z,4.42
2019-02-05T07:55:24.807Z,4.34
2019-02-05T07:56:24.790Z,4.42
2019-02-05T07:57:24.776Z,4.44
2019-02-05T07:58:24.740Z,4.47
2019-02-05T07:59:24.719Z,4.36
2019-02-05T08:00:24.693Z,4.42
2019-02-05T08:01:24.670Z,4.44
2019-02-05T08:02:24.665Z,4.40
2019-02-05T08:03:24.625Z,4.45
2019-02-05T08:04:24.605Z,4.40
2019-02-05T08:05:24.591Z,4.44
2019-02-05T08:06:24.562Z,4.40
2019-02-05T08:07:24.548Z,4.41
2019-02-05T08:08:24.529Z,4.47
2019-02-05T08:09:24.490Z,4.44
2019-02-05T08:10:24.467Z,4.47
2019-02-05T08:11:24.463Z,4.45
2019-02-05T08:12:24.423Z,4.47
2019-02-05T08:13:24.403Z,4.45
2019-02-05T08:14:24.384Z,4.52
2019-02-05T08:15:24.357Z,4.45
2019-02-05T08:16:24.352Z,4.54
2019-02-05T08:17:24.318Z,4.51
2019-02-05T08:18:24.291Z,4.54
2019-02-05T08:19:24.275Z,4.51
2019-02-05T08:20:24.253Z,4.52
2019-02-05T08:21:24.243Z,4.52
2019-02-05T08:22:24.206Z,4.59
2019-02-05T08:23:24.184Z,4.59
2019-02-05T08:24:24.156Z,4.55
2019-02-05T08:25:24.151Z,4.60
2019-02-05T08:26:24.132Z,4.58
2019-02-05T08:27:24.097Z,4.65
2019-02-05T08:28:24.091Z,4.55
2019-02-05T08:29:24.045Z,4.60
2019-02-05T08:30:24.020Z,4.59
2019-02-05T08:31:24.004Z,4.60
2019-02-05T08:32:23.998Z,4.51
2019-02-05T08:33:23.954Z,4.67
2019-02-05T08:34:23.940Z,4.62
2019-02-05T08:35:23.915Z,4.59
2019-02-05T08:36:23.899Z,4.55
2019-02-05T08:37:23.870Z,4.62
2019-02-05T08:38:23.866Z,4.59
2019-02-05T08:39:23.820Z,4.55
2019-02-05T08:40:23.801Z,4.55
2019-02-05T08:41:23.779Z,4.63
2019-02-05T08:42:23.774Z,4.55
2019-02-05T08:43:23.750Z,4.59
2019-02-05T08:44:23.708Z,4.63
2019-02-05T08:45:23.687Z,4.72
2019-02-05T08:46:23.685Z,4.66
2019-02-05T08:47:23.650Z,4.70
2019-02-05T08:48:23.738Z,4.66
2019-02-05T08:49:23.596Z,4.65
2019-02-05T08:50:23.588Z,4.73
2019-02-05T08:51:23.567Z,4.73
2019-02-05T08:52:23.538Z,4.77
2019-02-05T08:53:23.522Z,4.85
2019-02-05T08:54:23.656Z,4.78
2019-02-05T08:55:23.490Z,4.75
2019-02-05T08:56:23.452Z,4.70
2019-02-05T08:57:23.423Z,4.78
2019-02-05T08:58:30.748Z,4.86
2019-02-05T08:59:23.377Z,4.78
2019-02-05T09:00:23.354Z,4.86
2019-02-05T09:01:23.339Z,4.82
2019-02-05T09:02:23.310Z,4.88
2019-02-05T09:03:23.295Z,4.78
2019-02-05T09:04:23.299Z,4.80
2019-02-05T09:05:23.254Z,4.78
2019-02-05T09:06:23.248Z,4.85
2019-02-05T09:07:23.202Z,4.80
2019-02-05T09:08:23.196Z,4.91
2019-02-05T09:09:23.177Z,4.86
2019-02-05T09:10:23.138Z,4.96
2019-02-05T09:11:23.112Z,4.96
2019-02-05T09:12:23.095Z,4.99
2019-02-05T09:13:23.073Z,4.96
2019-02-05T09:14:23.060Z,4.94
2019-02-05T09:15:29.647Z,4.84
2019-02-05T09:16:23.005Z,4.82
2019-02-05T09:17:24.392Z,4.94
2019-02-05T09:18:22.977Z,4.96
2019-02-05T09:19:22.934Z,4.91
2019-02-05T09:20:22.915Z,5.00
2019-02-05T09:21:22.911Z,4.91
2019-02-05T09:22:22.882Z,4.96
2019-02-05T09:23:22.847Z,4.92
2019-02-05T09:24:22.820Z,5.00
2019-02-05T09:25:22.806Z,4.89
2019-02-05T09:26:22.796Z,4.97
2019-02-05T09:27:22.759Z,5.04
2019-02-05T09:28:22.770Z,5.09
2019-02-05T09:29:33.006Z,4.94
2019-02-05T09:30:22.698Z,5.00
2019-02-05T09:31:22.687Z,4.99
2019-02-05T09:32:22.655Z,4.97
2019-02-05T09:33:22.625Z,5.00
2019-02-05T09:34:22.617Z,5.04
2019-02-05T09:35:22.584Z,5.00
2019-02-05T09:36:22.561Z,5.15
2019-02-05T09:37:22.569Z,5.13
2019-02-05T09:38:22.527Z,5.13
2019-02-05T09:39:22.498Z,5.15
2019-02-05T09:40:22.471Z,5.18
2019-02-05T09:41:22.455Z,5.17
2019-02-05T09:42:22.440Z,5.20
2019-02-05T09:43:22.431Z,5.18
2019-02-05T09:44:22.384Z,5.21
2019-02-05T09:45:22.385Z,5.27
2019-02-05T09:46:22.342Z,5.25
2019-02-05T09:47:22.326Z,5.24
2019-02-05T09:48:22.317Z,5.27
2019-02-05T09:49:22.272Z,5.31
2019-02-05T09:50:22.249Z,5.31
2019-02-05T09:51:22.252Z,5.31
2019-02-05T09:52:22.235Z,5.20
2019-02-05T09:53:22.188Z,5.25
2019-02-05T09:54:22.168Z,5.28
2019-02-05T09:55:22.144Z,5.24
2019-02-05T09:56:22.121Z,5.27
2019-02-05T09:57:22.097Z,5.38
2019-02-05T09:58:22.097Z,5.30
2019-02-05T09:59:22.056Z,5.38
2019-02-05T10:00:22.034Z,5.40
2019-02-05T10:01:22.013Z,5.35
2019-02-05T10:02:21.994Z,5.38
2019-02-05T10:03:21.971Z,5.42
2019-02-05T10:04:21.967Z,5.31
2019-02-05T10:05:21.929Z,5.40
2019-02-05T10:06:21.910Z,5.36
2019-02-05T10:07:21.883Z,5.36
2019-02-05T10:08:21.859Z,5.36
2019-02-05T10:09:21.848Z,5.38
2019-02-05T10:10:21.835Z,5.40
2019-02-05T10:11:21.827Z,5.45
2019-02-05T10:12:21.774Z,5.43
2019-02-05T10:13:21.753Z,5.38
2019-02-05T10:14:21.730Z,5.39
2019-02-05T10:15:21.720Z,5.38
2019-02-05T10:16:21.685Z,5.35
2019-02-05T10:17:21.684Z,5.28
2019-02-05T10:18:21.640Z,5.42
2019-02-05T10:19:21.626Z,5.46
2019-02-05T10:20:21.600Z,5.48
2019-02-05T10:21:21.581Z,5.60
2019-02-05T10:22:21.573Z,5.51
2019-02-05T10:23:21.536Z,5.60
2019-02-05T10:24:21.514Z,5.58
2019-02-05T10:25:21.491Z,5.40
2019-02-05T10:26:21.471Z,5.51
2019-02-05T10:27:21.467Z,5.54
2019-02-05T10:28:21.424Z,5.54
2019-02-05T10:29:21.406Z,5.48
2019-02-05T10:30:21.377Z,5.53
2019-02-05T10:31:21.358Z,5.46
2019-02-05T10:32:21.352Z,5.54
2019-02-05T10:33:21.327Z,5.57
2019-02-05T10:34:21.292Z,5.54
2019-02-05T10:35:21.276Z,5.54
2019-02-05T10:36:21.250Z,5.51
2019-02-05T10:37:21.261Z,5.63
2019-02-05T10:38:21.210Z,5.67
2019-02-05T10:39:21.203Z,5.67
2019-02-05T10:40:21.162Z,5.63
2019-02-05T10:41:21.144Z,5.72
2019-02-05T10:42:21.122Z,5.64
2019-02-05T10:43:21.119Z,5.65
2019-02-05T10:44:21.097Z,5.56
2019-02-05T10:45:21.057Z,5.58
2019-02-05T10:46:21.037Z,5.63
2019-02-05T10:47:21.014Z,5.58
2019-02-05T10:48:21.006Z,5.57
2019-02-05T10:49:20.984Z,5.65
2019-02-05T10:50:20.986Z,5.71
2019-02-05T10:51:20.933Z,5.65
2019-02-05T10:52:20.910Z,5.57
2019-02-05T10:53:20.879Z,5.60
2019-02-05T10:54:20.866Z,5.60
2019-02-05T10:55:20.862Z,5.57
2019-02-05T10:56:20.838Z,5.58
2019-02-05T10:57:20.803Z,5.46
2019-02-05T10:58:20.777Z,5.58
2019-02-05T10:59:20.755Z,5.63
2019-02-05T11:00:20.739Z,5.60
2019-02-05T11:01:20.709Z,5.61
2019-02-05T11:02:20.709Z,5.71
2019-02-05T11:03:20.674Z,5.74
2019-02-05T11:04:20.655Z,5.68
2019-02-05T11:05:20.651Z,5.72
2019-02-05T11:06:20.619Z,5.72
2019-02-05T11:07:20.622Z,5.60
2019-02-05T11:08:20.605Z,5.65
2019-02-05T11:09:20.551Z,5.67
2019-02-05T11:10:20.531Z,5.79
2019-02-05T11:11:20.536Z,5.71
2019-02-05T11:12:20.493Z,5.79
2019-02-05T11:13:20.469Z,5.75
2019-02-05T11:14:20.437Z,5.74
2019-02-05T11:15:20.411Z,5.81
2019-02-05T11:16:20.390Z,5.82
2019-02-05T11:17:20.368Z,5.82
2019-02-05T11:18:20.366Z,5.89
2019-02-05T11:19:20.328Z,5.78
2019-02-05T11:20:20.312Z,5.78
2019-02-05T11:21:20.283Z,5.78
2019-02-05T11:22:20.257Z,5.82
2019-02-05T11:23:20.259Z,5.78
2019-02-05T11:24:20.216Z,5.76
2019-02-05T11:25:20.199Z,5.86
2019-02-05T11:26:20.181Z,5.81
2019-02-05T11:27:20.158Z,5.83
2019-02-05T11:28:20.148Z,5.86
2019-02-05T11:29:20.132Z,5.81
2019-02-05T11:30:20.759Z,5.86
2019-02-05T11:31:20.102Z,5.89
2019-02-05T11:32:20.057Z,5.83
2019-02-05T11:33:20.026Z,5.90
2019-02-05T11:34:20.003Z,5.96
2019-02-05T11:35:20.002Z,6.09
2019-02-05T11:36:19.963Z,6.03
2019-02-05T11:37:19.939Z,6.17
2019-02-05T11:38:19.921Z,6.14
2019-02-05T11:39:19.916Z,6.12
2019-02-05T11:40:19.892Z,6.28
2019-02-05T11:41:19.855Z,6.22
2019-02-05T11:42:19.840Z,6.11
2019-02-05T11:43:19.814Z,6.14
2019-02-05T11:44:19.803Z,6.14
2019-02-05T11:45:19.786Z,6.01
2019-02-05T11:46:19.774Z,6.04
2019-02-05T11:47:19.729Z,6.03
2019-02-05T11:48:19.709Z,6.06
2019-02-05T11:49:19.687Z,6.01
2019-02-05T11:50:19.671Z,6.12
2019-02-05T11:51:19.662Z,6.17
2019-02-05T11:52:19.626Z,6.15
2019-02-05T11:53:19.601Z,6.14
2019-02-05T11:54:19.582Z,6.18
2019-02-05T11:55:19.560Z,6.09
2019-02-05T11:56:19.574Z,6.11
2019-02-05T11:57:19.512Z,6.14
2019-02-05T11:58:19.496Z,6.14
2019-02-05T11:59:19.472Z,6.18
2019-02-05T12:00:19.450Z,6.17
2019-02-05T12:01:19.429Z,6.17
2019-02-05T12:02:19.439Z,6.19
2019-02-05T12:03:19.389Z,6.17
2019-02-05T12:04:19.377Z,6.09
2019-02-05T12:05:19.480Z,6.22
2019-02-05T12:06:19.339Z,6.25
2019-02-05T12:07:19.301Z,6.30
2019-02-05T12:08:19.300Z,6.28
2019-02-05T12:09:19.259Z,6.21
2019-02-05T12:10:19.249Z,6.27
2019-02-05T12:11:19.217Z,6.30
2019-02-05T12:12:19.307Z,6.17
2019-02-05T12:13:19.176Z,6.15
2019-02-05T12:14:19.165Z,6.17
2019-02-05T12:15:19.142Z,6.15
2019-02-05T12:16:19.116Z,6.14
2019-02-05T12:17:19.117Z,6.15
2019-02-05T12:18:19.092Z,6.18
2019-02-05T12:19:19.064Z,6.11
2019-02-05T12:20:19.030Z,6.12
2019-02-05T12:21:19.013Z,6.14
2019-02-05T12:22:18.992Z,6.11
2019-02-05T12:23:18.970Z,6.22
2019-02-05T12:24:18.999Z,6.22
2019-02-05T12:25:19.012Z,6.21
2019-02-05T12:26:18.920Z,6.21
2019-02-05T12:27:20.331Z,6.22
2019-02-05T12:28:18.861Z,6.31
2019-02-05T12:29:19.114Z,6.34
2019-02-05T12:30:18.817Z,6.28
2019-02-05T12:31:18.828Z,6.34
2019-02-05T12:32:18.774Z,6.36
2019-02-05T12:33:18.756Z,6.44
2019-02-05T12:34:18.734Z,6.44
2019-02-05T12:35:18.720Z,6.48
2019-02-05T12:36:18.705Z,6.55
2019-02-05T12:37:18.674Z,6.46
2019-02-05T12:38:18.653Z,6.44
2019-02-05T12:39:18.630Z,6.36
2019-02-05T12:40:18.643Z,6.38
2019-02-05T12:41:18.581Z,6.30
2019-02-05T12:42:18.559Z,6.33
2019-02-05T12:43:18.543Z,6.22
2019-02-05T12:44:18.519Z,6.19
2019-02-05T12:45:18.505Z,6.19
2019-02-05T12:46:18.499Z,6.31
2019-02-05T12:47:18.490Z,6.34
2019-02-05T12:48:18.437Z,6.28
2019-02-05T12:49:18.435Z,6.36
2019-02-05T12:50:18.399Z,6.46
2019-02-05T12:51:18.375Z,6.48
2019-02-05T12:52:18.353Z,6.49
2019-02-05T12:53:18.330Z,6.58
2019-02-05T12:54:18.329Z,6.66
2019-02-05T12:55:18.297Z,6.58
2019-02-05T12:56:18.272Z,6.44
2019-02-05T12:57:18.249Z,6.49
2019-02-05T12:58:18.233Z,6.49
2019-02-05T12:59:18.227Z,6.49
2019-02-05T13:00:18.184Z,6.49
2019-02-05T13:01:18.161Z,6.54
2019-02-05T13:02:18.142Z,6.55
2019-02-05T13:03:18.135Z,6.55
2019-02-05T13:04:18.119Z,6.64
2019-02-05T13:05:18.095Z,6.61
2019-02-05T13:06:18.061Z,6.67
2019-02-05T13:07:18.040Z,6.66
2019-02-05T13:08:18.037Z,6.66
2019-02-05T13:09:17.995Z,6.69
2019-02-05T13:10:17.974Z,6.76
2019-02-05T13:11:17.987Z,6.71
2019-02-05T13:12:17.934Z,6.70
2019-02-05T13:13:18.417Z,6.71
2019-02-05T13:14:17.890Z,6.71
2019-02-05T13:15:17.874Z,6.74
2019-02-05T13:16:17.850Z,6.62
2019-02-05T13:17:17.845Z,6.56
2019-02-05T13:18:17.814Z,6.61
2019-02-05T13:19:17.786Z,6.67
2019-02-05T13:20:17.770Z,6.54